Flight Track Log - Related Links

Times and Time Zones

All times are in EDT time to prevent confusion due to time zone crossing. See the EJA396 flight status page for this flight to view local times or setup timezone preferences in your user account.

Time Position Orientation Groundspeed Altitude Reporting Facility
EDT Latitude Longitude Course Direction KTS MPH feet Rate Location/Type
Fri 11:38:07 AM 36.2122 -94.1256 81° East 299 344 13,900  Level Memphis Center
Fri 11:39:07 AM 36.2261 -94.0128 81° East 311 358 15,600 1,950 Climbing Memphis Center
Fri 11:40:07 AM 36.2400 -93.8875 82° East 343 395 17,800 2,150 Climbing Memphis Center
Fri 11:41:07 AM 36.2542 -93.7569 82° East 364 419 19,900 2,050 Climbing Memphis Center
Fri 11:42:07 AM 36.2656 -93.6389 83° East 380 437 21,900 2,000 Climbing Memphis Center
Fri 11:43:07 AM 36.2836 -93.5031 81° East 392 451 23,900 2,100 Climbing Memphis Center
Fri 11:44:07 AM 36.2997 -93.3594 82° East 405 466 26,100 1,950 Climbing Memphis Center
Fri 11:45:07 AM 36.3219 -93.2136 79° East 420 483 27,800 1,600 Climbing Memphis Center
Fri 11:46:07 AM 36.3811 -93.0789 61° Northeast 425 489 29,300 1,600 Climbing Memphis Center
Fri 11:47:07 AM 36.4444 -92.9444 60° Northeast 430 495 31,000 1,650 Climbing Memphis Center
Fri 11:48:07 AM 36.5078 -92.8097 60° Northeast 443 510 32,600 1,000 Climbing Memphis Center
Fri 11:49:07 AM 36.5750 -92.6719 59° Northeast 456 525 33,000 200 Climbing Memphis Center
Fri 11:50:07 AM 36.6422 -92.5267 60° Northeast 467 537 33,000  Level Memphis Center
Fri 11:51:35 AM 36.7481 -92.2983 60° Northeast 472 543 33,000  Level Kansas City Center
Fri 11:52:37 AM 36.8139 -92.1567 60° Northeast 473 544 33,000  Level Kansas City Center
Fri 11:53:40 AM 36.8783 -92.0150 60° Northeast 473 544 33,000  Level Kansas City Center
Fri 11:54:42 AM 36.9422 -91.8744 60° Northeast 471 542 33,000  Level Kansas City Center
Fri 11:55:44 AM 37.0069 -91.7342 60° Northeast 468 539 33,000  Level Kansas City Center
Fri 11:56:46 AM 37.0703 -91.5958 60° Northeast 464 534 33,000  Level Kansas City Center
Fri 11:57:48 AM 37.1461 -91.4281 60° Northeast 463 533 33,000  Level Kansas City Center
Fri 11:58:50 AM 37.2089 -91.2889 60° Northeast 460 529 33,000  Level Kansas City Center
Fri 11:59:53 AM 37.2703 -91.1517 61° Northeast 456 525 33,000  Level Kansas City Center
Fri 12:00:55 PM 37.3308 -91.0133 61° Northeast 453 521 33,000  Level Kansas City Center
Fri 12:01:57 PM 37.3892 -90.8725 62° Northeast 453 521 33,000  Level Kansas City Center
Fri 12:02:59 PM 37.4139 -90.7031 80° East 452 520 33,000  Level Kansas City Center
Fri 12:04:01 PM 37.4328 -90.5464 81° East 454 522 33,000  Level Kansas City Center
Fri 12:05:03 PM 37.4533 -90.3914 80° East 453 521 33,000  Level Kansas City Center
Fri 12:06:05 PM 37.4722 -90.2353 81° East 453 521 33,000  Level Kansas City Center
Fri 12:07:07 PM 37.4942 -90.0617 81° East 452 520 33,000  Level Kansas City Center
Fri 12:08:09 PM 37.5136 -89.9042 81° East 452 520 33,000  Level Kansas City Center
Fri 12:09:11 PM 37.5322 -89.7475 81° East 452 520 33,000  Level Kansas City Center
Fri 12:10:13 PM 37.5550 -89.5558 81° East 456 525 33,000  Level Kansas City Center
Fri 12:11:15 PM 37.5747 -89.3964 81° East 458 527 33,000  Level Kansas City Center
Fri 12:12:17 PM 37.5931 -89.2353 82° East 461 531 33,000  Level Kansas City Center
Fri 12:13:19 PM 37.6108 -89.0747 82° East 461 531 33,000  Level Kansas City Center
Fri 12:15:10 PM 37.6450 -88.7844 81° East 458 527 33,000  Level Indianapolis Center
Fri 12:16:13 PM 37.6625 -88.6267 82° East 455 524 33,000  Level Indianapolis Center
Fri 12:17:03 PM 37.6764 -88.5006 82° East 452 520 33,000  Level Kansas City Center
Fri 12:18:05 PM 37.6928 -88.3425 82° East 452 520 33,000  Level Kansas City Center
Fri 12:19:07 PM 37.7128 -88.1561 82° East 447 514 33,000  Level Kansas City Center
Fri 12:20:09 PM 37.7300 -87.9989 82° East 450 518 33,000  Level Kansas City Center
Fri 12:21:11 PM 37.7456 -87.8428 83° East 449 517 33,000  Level Kansas City Center
Fri 12:22:23 PM 37.7642 -87.6642 82° East 448 516 33,000  Level Indianapolis Center
Fri 12:23:25 PM 37.7808 -87.5069 82° East 448 516 33,000 -532 Level Indianapolis Center
Fri 12:24:27 PM 37.7961 -87.3464 83° East 447 514 31,900 -1,065 Descending Indianapolis Center
Fri 12:25:29 PM 37.8122 -87.1897 83° East 450 518 30,800 -1,306 Descending Indianapolis Center
Fri 12:26:31 PM 37.8294 -87.0103 83° East 434 499 29,200 -1,500 Descending Indianapolis Center
Fri 12:27:33 PM 37.8433 -86.8667 83° East 421 484 27,700 -1,452 Descending Indianapolis Center
Fri 12:28:35 PM 37.8567 -86.7250 83° East 408 470 26,200 -1,500 Descending Indianapolis Center
Fri 12:29:37 PM 37.8706 -86.5819 83° East 411 473 24,600 -1,500 Descending Indianapolis Center
Fri 12:30:39 PM 37.8833 -86.4367 84° East 416 479 23,100 -1,452 Descending Indianapolis Center
Fri 12:31:41 PM 37.8969 -86.2933 83° East 412 474 21,600 -1,597 Descending Indianapolis Center
Fri 12:32:43 PM 37.9114 -86.1297 84° East 394 453 19,800 -1,597 Descending Indianapolis Center
Fri 12:33:45 PM 37.9236 -85.9925 84° East 392 451 18,300 -1,306 Descending Indianapolis Center
Fri 12:34:47 PM 37.9353 -85.8558 84° East 391 450 17,100 -1,306 Descending Indianapolis Center
Fri 12:35:49 PM 37.9467 -85.7294 83° East 368 423 15,600 -1,452 Descending Indianapolis Center
Fri 12:36:51 PM 37.9572 -85.6028 84° East 362 417 14,100 -1,452 Descending Indianapolis Center
Fri 12:37:53 PM 37.9669 -85.4753 84° East 363 418 12,600 -1,403 Descending Indianapolis Center
Fri 12:38:55 PM 37.9794 -85.3306 84° East 344 396 11,200 -774 Descending Indianapolis Center
Fri 12:39:57 PM 37.9903 -85.2106 83° East 342 394 11,000 -97 Descending Indianapolis Center
Fri 12:40:59 PM 37.9989 -85.0942 85° East 345 397 11,000 -242 Level Indianapolis Center
Fri 12:42:01 PM 38.0289 -84.9806 71° East 337 388 10,500 -919 Descending Indianapolis Center
Fri 12:43:03 PM 38.0733 -84.8719 63° Northeast 304 350 9,100 -1,306 Descending Indianapolis Center
Fri 12:44:05 PM 38.1050 -84.7847 65° Northeast 280 322 7,800 -1,500 Descending Indianapolis Center
Fri 12:45:07 PM 38.1383 -84.7031 63° Northeast 272 313 6,000 -1,694 Descending Indianapolis Center
Fri 12:46:09 PM 38.1683 -84.6317 62° Northeast 253 291 4,300 -1,306 Descending Indianapolis Center
Fri 12:47:11 PM 38.1847 -84.5692 72° East 224 258 3,300 -629 Descending Indianapolis Center
Fri 12:48:13 PM 38.1650 -84.5253 120° Southeast 174 200 3,000 -145 Descending Indianapolis Center
Fri 12:49:15 PM 38.1272 -84.5003 152° Southeast 160 184 3,000 -290 Level Indianapolis Center
Fri 12:50:17 PM 38.0872 -84.5464 222° Southwest 190 219 2,400 -339 Descending Indianapolis Center
Fri 12:51:19 PM 38.0575 -84.5889 228° Southwest 188 216 2,300 -97 Descending Indianapolis Center

Login

Don't have an account? Register now (free) for customized features, flight alerts, and more!